Historyczne dane pomiarowe

Dodano dane terminowe – wersja testowa.

Dane z okresu 1951-2019

Wersja bazy: 1.34 [2019-03-16, lista zmian], aktualizacja planowana na 2019-04-15

Dane meteo z obszaru Polski uzyskane na podstawie danych udostępnionych przez Instytut Meteorologii i Gospodarki Wodnej – Państwowy Instytut Badawczy.

 

Wybierz Datę:    

       

TemperaturaWilgotnośćWiatrCiśnienieOpadyŚniegCzas trwania zjawisk
 Stacja t tx tn tng RH VA  wxwx mslp ppp RRR   cm mm wxwxwxwxwxwxwx
1987-08-14 14.5 21.3 6.5 5.3 79.3- 6.3 0.3---- 12.7------------
1987-08-13 12.9 15.9 7.5 5.7 91.3- 5.3 1.7---- 0.1------------
1987-08-12 13.0 18.1 9.9 8.4 83.0- 6.7 3.7---- 1.0------------
1987-08-11 13.2 17.3 9.9 8.3 84.8- 6.0 2.7---- 1.1------------
1987-08-10 15.2 18.9 13.2 10.4 87.5- 7.7 1.3---- 0.6------------
1987-08-09 16.7 22.5 8.6 5.8 71.8- 2.3 1.0---- 4.5------------
1987-08-08 14.3 21.3 5.1 2.6 71.5- 3.3 2.3---- 0.0------------
1987-08-07 13.7 18.9 8.9 7.7 69.3- 6.0 5.0---- 0.0------------
1987-08-06 12.9 17.1 7.1 4.5 76.3- 6.7 3.7---- 1.5------------
1987-08-05 12.9 18.1 5.9 3.3 73.0- 2.7 3.0---- 0.0------------
1987-08-04 14.7 18.1 9.3 6.8 74.5- 5.0 2.3---- 0.1------------
1987-08-03 14.2 18.3 9.4 12.4 73.5- 5.7 3.3---- 0.2------------
1987-08-02 14.3 18.7 11.4 10.9 79.0- 4.0 2.3---- 4.0------------
1987-08-01 15.1 20.1 10.0 7.7 86.8- 6.7 2.0---- 8.7------------
1987-07-31 15.8 19.6 12.9 9.7 93.3- 8.0 1.3---- 16.1------------
1987-07-30 17.6 23.1 11.0 8.4 69.0- 2.3 0.3---- 0.6------------
1987-07-29 14.8 19.6 9.6 8.0 76.8- 5.3 1.0---- 2.3------------
1987-07-28 15.1 19.9 11.3 9.4 77.8- 6.0 2.7---- 0.6------------
1987-07-27 11.0 17.3 6.4 4.6 82.0- 7.0 1.7---- 3.4------------
1987-07-26 14.2 19.2 10.5 7.5 80.5- 6.3 1.3---- 0.2------------
1987-07-25 18.0 23.3 12.4 8.8 74.3- 5.3 1.7---- 0.0------------
1987-07-24 20.3 26.4 13.2 10.9 77.0- 4.7 2.3---- 0.0------------
1987-07-23 20.3 27.1 13.5 12.0 83.0- 6.0 1.7---- 0.0------------
1987-07-22 20.6 25.5 12.4 10.4 77.0- 4.7 1.0---- 0.0------------
1987-07-21 18.5 25.3 9.0 8.0 76.8- 3.0 0.3---- 0.0------------
1987-07-20 17.7 24.0 14.3 14.9 87.5- 5.7 0.7---- 0.0------------
1987-07-19 19.4 24.0 12.8 9.7 80.5- 4.3 0.3---- 0.3------------
1987-07-18 21.1 25.5 17.8 16.3 77.5- 5.3 0.7---- 0.0------------
1987-07-17 19.0 24.1 13.4 11.4 69.5- 5.3 2.3---- 0.2------------
1987-07-16 17.9 24.2 7.9 5.6 68.8- 2.7 0.0---- 0.0------------
1987-07-15 15.5 22.5 5.1 3.1 68.3- 0.0 0.7---- 0.0------------
1987-07-14 15.2 19.6 8.9 6.8 77.5- 5.0 1.7---- 0.0------------
1987-07-13 16.1 20.3 11.3 9.9 77.8- 4.7 2.3---- 0.4------------
1987-07-12 17.5 22.6 14.7 14.4 91.3- 8.0 4.0---- 16.4------------
1987-07-11 14.5 20.5 8.3 5.9 78.8- 8.0 2.3---- 10.8------------
1987-07-10 13.7 18.5 8.4 5.9 70.3- 4.7 5.0---- 1.9------------
1987-07-09 17.5 24.4 14.7 15.4 84.5- 8.0 1.3---- 0.5------------
1987-07-08 21.3 29.1 12.8 8.8 57.3- 2.0 0.7---- 2.1------------
1987-07-07 20.0 27.3 8.6 6.5 65.0- 0.7 1.0---- 0.0------------
1987-07-06 17.9 24.3 5.5 2.9 67.0- 1.0 0.3---- 0.0------------
1987-07-05 18.0 22.4 10.6 8.5 59.0- 1.0 2.0---- 0.0------------
1987-07-04 16.5 22.5 10.0 7.4 63.5- 4.7 1.0---- 0.0------------
1987-07-03 18.4 23.4 8.9 6.0 62.5- 1.0 1.0---- 0.0------------
1987-07-02 19.7 26.3 16.4 16.1 70.8- 5.7 0.3---- 0.0------------
1987-07-01 24.6 30.9 18.2 16.4 73.5- 3.7 2.0---- 0.2------------
1987-06-30 24.9 28.4 18.1 15.6 72.8- 2.7 0.7---- 0.0------------
1987-06-29 20.7 23.3 5.5 3.8 62.5- 5.3 3.0---- 0.0------------
1987-06-28 17.3 21.1 10.7 8.7 79.8- 5.7 2.3---- 0.3------------
1987-06-27 19.0 22.1 15.3 13.7 73.0- 5.0 2.0---- 0.0------------
1987-06-26 18.5 21.6 7.8 6.1 64.8- 6.7 1.7---- 0.7------------
1987-06-25 13.8 17.9 11.6 9.1 83.8- 7.3 1.3---- 1.6------------
1987-06-24 17.4 21.1 10.1 8.6 74.0- 6.3 3.0---- 4.1------------
1987-06-23 16.2 21.8 10.3 8.5 79.3- 7.3 1.0---- 0.0------------
1987-06-22 22.0 25.8 8.9 6.8 58.0- 3.0 0.0---- 0.0------------
1987-06-21 19.8 24.1 9.5 6.1 77.8- 3.0 0.7---- 0.0------------
1987-06-20 17.0 21.8 7.7 5.1 81.3- 1.7 1.7---- 0.0------------
1987-06-19 13.4 17.3 5.7 2.5 79.8- 4.7 2.7---- 0.0------------
1987-06-18 12.6 18.5 4.0 1.5 84.0- 5.0 1.0---- 1.6------------
1987-06-17 12.1 14.7 11.0 10.1 71.5- 7.3 1.3---- 0.0------------
1987-06-16 12.5 24.6 10.4 11.8 90.3- 8.0 5.0---- 5.8------------
662.5 ms

 

Źródłem pochodzenia danych jest Instytut Meteorologii i Gospodarki Wodnej – Państwowy Instytut Badawczy. Dane Instytutu Meteorologii i Gospodarki Wodnej – Państwowego Instytutu Badawczego zostały przetworzone.

Dane źródłowe można odnaleźć na stronie https://dane.imgw.pl